createdAt,value
2022-09-09T00:00:49.790Z,11.44
2022-09-09T00:03:38.665Z,11.59
2022-09-09T00:06:17.713Z,11.86
2022-09-09T00:08:56.031Z,12.14
2022-09-09T00:11:31.562Z,12.26
2022-09-09T00:14:06.362Z,12.42
2022-09-09T00:16:41.238Z,12.70
2022-09-09T00:19:23.138Z,11.81
2022-09-09T00:21:59.823Z,12.97
2022-09-09T00:24:33.051Z,12.79
2022-09-09T00:27:08.525Z,12.73
2022-09-09T00:29:45.409Z,12.43
2022-09-09T00:32:17.995Z,12.07
2022-09-09T00:34:51.732Z,12.80
2022-09-09T00:37:24.773Z,12.79
2022-09-09T00:39:57.632Z,13.25
2022-09-09T00:42:36.163Z,13.84
2022-09-09T00:45:21.191Z,12.73
2022-09-09T00:47:52.873Z,12.94
2022-09-09T00:50:36.784Z,12.49
2022-09-09T00:53:16.992Z,12.44
2022-09-09T00:55:51.249Z,12.55
2022-09-09T00:58:21.266Z,12.84
2022-09-09T01:00:55.311Z,13.13
2022-09-09T01:03:35.369Z,13.04
2022-09-09T01:06:14.431Z,13.39
2022-09-09T01:09:16.648Z,13.17
2022-09-09T01:11:53.984Z,13.09
2022-09-09T01:14:33.244Z,13.05
2022-09-09T01:17:08.431Z,13.66
2022-09-09T01:19:48.421Z,13.82
2022-09-09T01:22:26.825Z,13.89
2022-09-09T01:25:14.750Z,14.35
2022-09-09T01:27:47.704Z,14.08
2022-09-09T01:30:19.414Z,13.78
2022-09-09T01:32:51.845Z,14.64
2022-09-09T01:35:31.695Z,14.52
2022-09-09T01:38:01.882Z,14.12
2022-09-09T01:40:31.995Z,14.48
2022-09-09T01:43:02.011Z,14.79
2022-09-09T01:45:32.418Z,16.01
2022-09-09T01:48:03.454Z,15.82
2022-09-09T01:50:33.439Z,13.89
2022-09-09T01:53:04.664Z,14.02
2022-09-09T01:55:40.149Z,14.52
2022-09-09T01:58:18.862Z,15.37
2022-09-09T02:00:57.041Z,15.07
2022-09-09T02:03:29.859Z,15.71
2022-09-09T02:06:08.383Z,17.54
2022-09-09T02:08:44.766Z,15.85
2022-09-09T02:11:16.136Z,15.69
2022-09-09T02:13:47.931Z,16.18
2022-09-09T02:16:22.804Z,16.62
2022-09-09T02:18:57.528Z,16.79
2022-09-09T02:21:30.895Z,18.43
2022-09-09T02:24:05.541Z,19.01
2022-09-09T02:26:40.342Z,17.14
2022-09-09T02:29:15.353Z,15.60
2022-09-09T02:31:48.188Z,17.34
2022-09-09T02:34:21.270Z,17.07
2022-09-09T02:36:53.688Z,16.44
2022-09-09T02:39:23.705Z,16.61
2022-09-09T02:41:54.112Z,15.99
2022-09-09T02:44:24.074Z,16.31
2022-09-09T02:47:07.354Z,16.25
2022-09-09T02:49:45.633Z,16.44
2022-09-09T02:52:17.470Z,16.91
2022-09-09T02:54:47.941Z,16.38
2022-09-09T02:57:22.156Z,16.31
2022-09-09T02:59:53.087Z,16.33
2022-09-09T03:02:23.071Z,16.96
2022-09-09T03:04:53.075Z,17.12
2022-09-09T03:07:23.400Z,16.46
2022-09-09T03:09:55.973Z,16.43
2022-09-09T03:12:26.005Z,16.18
2022-09-09T03:14:56.418Z,17.15
2022-09-09T03:17:28.967Z,16.88
2022-09-09T03:19:59.706Z,16.47
2022-09-09T03:22:29.641Z,18.09
2022-09-09T03:24:59.706Z,17.11
2022-09-09T03:27:29.768Z,16.59
2022-09-09T03:29:59.757Z,17.15
2022-09-09T03:32:29.764Z,16.15
2022-09-09T03:34:59.774Z,15.93
2022-09-09T03:37:29.786Z,15.76
2022-09-09T03:40:01.276Z,15.51
2022-09-09T03:42:31.869Z,16.11
2022-09-09T03:45:01.849Z,15.49
2022-09-09T03:47:31.843Z,15.97
2022-09-09T03:50:01.837Z,15.59
2022-09-09T03:52:31.812Z,15.46
2022-09-09T03:55:02.605Z,15.74
2022-09-09T03:57:32.881Z,15.85
2022-09-09T04:00:02.967Z,15.85
2022-09-09T04:02:33.070Z,15.34
2022-09-09T04:05:03.125Z,15.30
2022-09-09T04:07:33.397Z,16.18
2022-09-09T04:10:03.358Z,17.46
2022-09-09T04:12:33.425Z,16.32
2022-09-09T04:15:04.188Z,15.10
2022-09-09T04:17:34.209Z,15.06
2022-09-09T04:20:04.848Z,15.41
2022-09-09T04:22:35.135Z,14.76
2022-09-09T04:25:05.394Z,16.35
2022-09-09T04:27:35.354Z,14.84
2022-09-09T04:30:06.049Z,15.33
2022-09-09T04:32:36.981Z,15.07
2022-09-09T04:35:09.234Z,14.12
2022-09-09T04:37:39.193Z,13.55
2022-09-09T04:40:11.876Z,13.22
2022-09-09T04:42:45.027Z,12.41
2022-09-09T04:45:15.012Z,12.38
2022-09-09T04:47:44.924Z,12.11
2022-09-09T04:50:14.937Z,12.39
2022-09-09T04:52:45.000Z,13.55
2022-09-09T04:55:15.594Z,13.08
2022-09-09T04:57:45.534Z,12.66
2022-09-09T05:00:18.106Z,11.55
2022-09-09T05:02:49.793Z,11.29
2022-09-09T05:05:20.691Z,12.18
2022-09-09T05:07:50.714Z,11.90
2022-09-09T05:10:20.722Z,11.51
2022-09-09T05:12:55.622Z,12.51
2022-09-09T05:15:25.747Z,11.18
2022-09-09T05:18:00.089Z,11.56
2022-09-09T05:20:30.828Z,11.54
2022-09-09T05:23:00.852Z,11.44
2022-09-09T05:25:30.797Z,10.78
2022-09-09T05:28:01.793Z,10.81
2022-09-09T05:30:31.965Z,11.03
2022-09-09T05:33:02.705Z,10.59
2022-09-09T05:35:32.759Z,10.42
2022-09-09T05:38:02.940Z,10.74
2022-09-09T05:40:33.914Z,11.29
2022-09-09T05:43:04.175Z,10.81
2022-09-09T05:45:34.152Z,10.55
2022-09-09T05:48:04.302Z,10.14
2022-09-09T05:50:34.327Z,10.34
2022-09-09T05:53:04.584Z,9.87
2022-09-09T05:55:34.581Z,10.54
2022-09-09T05:58:05.355Z,10.03
2022-09-09T06:00:35.352Z,10.38
2022-09-09T06:03:05.885Z,9.79
2022-09-09T06:05:36.345Z,9.74
2022-09-09T06:08:06.363Z,9.42
2022-09-09T06:10:37.388Z,9.51
2022-09-09T06:13:07.425Z,9.71
2022-09-09T06:15:38.027Z,9.24
2022-09-09T06:18:08.062Z,9.38
2022-09-09T06:20:38.036Z,9.22
2022-09-09T06:23:08.392Z,9.44
2022-09-09T06:25:40.384Z,8.99
2022-09-09T06:28:10.299Z,9.16
2022-09-09T06:30:41.025Z,8.44
2022-09-09T06:33:11.362Z,8.88
2022-09-09T06:35:41.389Z,9.53
2022-09-09T06:38:11.311Z,8.66
2022-09-09T06:40:41.939Z,8.96
2022-09-09T06:43:11.961Z,9.44
2022-09-09T06:45:41.872Z,9.18
2022-09-09T06:48:11.842Z,9.28
2022-09-09T06:50:41.841Z,9.31
2022-09-09T06:53:11.835Z,9.54
2022-09-09T06:55:45.260Z,9.38
2022-09-09T06:58:15.258Z,9.69
2022-09-09T07:00:45.338Z,9.75
2022-09-09T07:03:15.520Z,10.04
2022-09-09T07:05:46.032Z,10.35
2022-09-09T07:08:18.391Z,10.64
2022-09-09T07:10:48.416Z,11.39
2022-09-09T07:13:20.124Z,10.84
2022-09-09T07:15:50.121Z,10.09
2022-09-09T07:18:20.153Z,10.47
2022-09-09T07:20:57.226Z,11.24
2022-09-09T07:23:27.180Z,13.62
2022-09-09T07:25:57.496Z,12.48
2022-09-09T07:28:29.914Z,11.07
2022-09-09T07:31:02.989Z,11.61
2022-09-09T07:33:35.451Z,13.08
2022-09-09T07:36:07.717Z,13.20
2022-09-09T07:38:41.666Z,12.97
2022-09-09T07:41:13.734Z,15.48
2022-09-09T07:43:45.045Z,15.17
2022-09-09T07:46:16.133Z,14.85
2022-09-09T07:48:47.989Z,13.35
2022-09-09T07:51:19.375Z,14.18
2022-09-09T07:53:49.602Z,13.53
2022-09-09T07:56:22.901Z,14.34
2022-09-09T07:58:53.832Z,14.90
2022-09-09T08:01:25.729Z,16.17
2022-09-09T08:03:59.907Z,15.52
2022-09-09T08:06:31.258Z,14.44
2022-09-09T08:09:01.531Z,16.23
2022-09-09T08:11:38.056Z,15.27
2022-09-09T08:14:09.719Z,14.76
2022-09-09T08:16:41.537Z,17.22
2022-09-09T08:19:11.543Z,19.28
2022-09-09T08:21:42.351Z,14.74
2022-09-09T08:24:13.349Z,15.42
2022-09-09T08:26:44.604Z,15.02
2022-09-09T08:29:15.316Z,15.17
2022-09-09T08:31:47.469Z,15.83
2022-09-09T08:34:18.681Z,15.80
2022-09-09T08:36:50.095Z,15.30
2022-09-09T08:39:21.001Z,15.01
2022-09-09T08:42:03.768Z,15.39
2022-09-09T08:44:48.722Z,15.36
2022-09-09T08:47:31.787Z,15.65
2022-09-09T08:50:16.099Z,16.02
2022-09-09T08:52:51.856Z,15.56
2022-09-09T08:55:28.399Z,16.16
2022-09-09T08:58:02.140Z,16.33
2022-09-09T09:00:39.979Z,17.76
2022-09-09T09:03:18.573Z,16.34
2022-09-09T09:05:57.441Z,16.88
2022-09-09T09:08:33.699Z,17.38
2022-09-09T09:11:04.523Z,17.61
2022-09-09T09:13:43.709Z,17.02
2022-09-09T09:16:21.791Z,17.47
2022-09-09T09:18:52.456Z,18.44
2022-09-09T09:21:31.127Z,19.22
2022-09-09T09:24:02.585Z,18.33
2022-09-09T09:26:35.517Z,17.53
2022-09-09T09:29:12.970Z,17.52
2022-09-09T09:31:44.311Z,19.64
2022-09-09T09:34:14.319Z,18.47
2022-09-09T09:36:47.454Z,18.29
2022-09-09T09:42:20.315Z,18.59
2022-09-09T09:44:53.292Z,18.36
2022-09-09T09:47:25.395Z,19.99
2022-09-09T09:49:56.315Z,20.16
2022-09-09T09:52:29.350Z,20.54
2022-09-09T09:55:05.277Z,20.01
2022-09-09T09:57:39.141Z,19.63
2022-09-09T10:00:17.877Z,20.10
2022-09-09T10:02:49.241Z,21.70
2022-09-09T10:05:26.524Z,20.34
2022-09-09T10:08:04.877Z,21.30
2022-09-09T10:10:47.945Z,22.02
2022-09-09T10:13:24.949Z,23.71
2022-09-09T10:16:05.349Z,22.37
2022-09-09T10:18:44.783Z,21.95
2022-09-09T10:21:23.443Z,21.09
2022-09-09T10:24:04.422Z,20.69
2022-09-09T10:26:41.117Z,21.93
2022-09-09T10:29:23.383Z,21.17
2022-09-09T10:32:01.951Z,21.90
2022-09-09T10:34:43.035Z,21.91
2022-09-09T10:37:24.468Z,22.44
2022-09-09T10:40:03.041Z,21.16
2022-09-09T10:42:33.902Z,23.82
2022-09-09T10:45:16.939Z,23.27
2022-09-09T10:48:05.887Z,23.30
2022-09-09T10:51:04.708Z,22.44
2022-09-09T10:53:46.010Z,23.39
2022-09-09T10:56:18.871Z,22.92
2022-09-09T10:58:54.529Z,22.70
2022-09-09T11:01:27.483Z,23.43
2022-09-09T11:04:02.417Z,24.26
2022-09-09T11:06:37.701Z,24.17
2022-09-09T11:09:08.260Z,24.95
2022-09-09T11:11:42.263Z,24.37
2022-09-09T11:14:18.455Z,25.83
2022-09-09T11:16:53.478Z,26.71
2022-09-09T11:19:28.925Z,26.77
2022-09-09T11:22:01.898Z,26.28
2022-09-09T11:24:35.934Z,25.54
2022-09-09T11:27:13.122Z,27.05
2022-09-09T11:29:58.350Z,26.77
2022-09-09T11:32:41.184Z,28.00
2022-09-09T11:35:27.281Z,26.57
2022-09-09T11:38:15.665Z,28.65
2022-09-09T11:40:47.642Z,27.73
2022-09-09T11:43:22.979Z,28.41
2022-09-09T11:46:00.516Z,29.20
2022-09-09T11:48:44.449Z,29.47
2022-09-09T11:51:17.285Z,29.26
2022-09-09T11:53:53.019Z,29.59
2022-09-09T11:56:31.974Z,28.37
2022-09-09T11:59:04.719Z,30.55
2022-09-09T12:01:39.520Z,29.72
2022-09-09T12:04:19.935Z,30.65
2022-09-09T12:06:55.494Z,31.70
2022-09-09T12:09:31.011Z,28.64
2022-09-09T12:12:24.406Z,30.82
2022-09-09T12:15:02.807Z,34.06
2022-09-09T12:17:34.379Z,39.20
2022-09-09T12:20:10.972Z,35.67
2022-09-09T12:22:48.134Z,35.70
2022-09-09T12:25:30.416Z,31.75
2022-09-09T12:28:08.855Z,30.08
2022-09-09T12:30:45.185Z,29.32
2022-09-09T12:33:22.551Z,32.03
2022-09-09T12:35:58.333Z,31.10
2022-09-09T12:38:35.041Z,31.24
2022-09-09T12:41:05.274Z,32.28
2022-09-09T12:43:35.290Z,31.62
2022-09-09T12:46:10.784Z,32.98
2022-09-09T12:48:43.605Z,32.58
2022-09-09T12:51:21.934Z,33.14
2022-09-09T12:53:52.055Z,35.44
2022-09-09T12:56:23.964Z,35.20
2022-09-09T12:58:55.792Z,32.07
2022-09-09T13:01:26.842Z,31.54
2022-09-09T13:03:57.309Z,30.74
2022-09-09T13:06:29.461Z,30.94
2022-09-09T13:09:01.548Z,32.93
2022-09-09T13:11:35.177Z,32.61
2022-09-09T13:14:05.601Z,32.94
2022-09-09T13:16:42.566Z,31.81
2022-09-09T13:19:17.893Z,31.35
2022-09-09T13:21:48.118Z,32.79
2022-09-09T13:24:33.136Z,31.38
2022-09-09T13:27:04.966Z,35.37
2022-09-09T13:29:35.218Z,32.99
2022-09-09T13:32:08.914Z,30.79
2022-09-09T13:34:39.009Z,30.33
2022-09-09T13:37:23.268Z,31.58
2022-09-09T13:39:56.124Z,32.10
2022-09-09T13:42:28.294Z,33.35
2022-09-09T13:45:01.017Z,33.77
2022-09-09T13:47:35.329Z,32.63
2022-09-09T13:50:20.325Z,33.09
2022-09-09T13:52:52.487Z,30.98
2022-09-09T13:55:24.278Z,32.78
2022-09-09T13:57:55.371Z,34.26
2022-09-09T14:00:26.264Z,31.42
2022-09-09T14:02:57.034Z,33.45
2022-09-09T14:05:28.315Z,31.59
2022-09-09T14:08:01.625Z,32.13
2022-09-09T14:10:31.682Z,31.18
2022-09-09T14:13:02.442Z,32.25
2022-09-09T14:15:32.463Z,32.37
2022-09-09T14:18:03.196Z,31.79
2022-09-09T14:20:33.924Z,31.90
2022-09-09T14:23:04.179Z,33.03
2022-09-09T14:25:34.612Z,31.90
2022-09-09T14:28:04.939Z,31.84
2022-09-09T14:30:35.012Z,31.28
2022-09-09T14:33:05.173Z,32.68
2022-09-09T14:35:35.563Z,31.50
2022-09-09T14:38:06.400Z,32.25
2022-09-09T14:40:37.927Z,32.06
2022-09-09T14:43:08.264Z,32.51
2022-09-09T14:45:39.350Z,32.30
2022-09-09T14:48:09.385Z,31.84
2022-09-09T14:50:41.113Z,31.25
2022-09-09T14:53:11.338Z,31.27
2022-09-09T14:55:41.414Z,30.35
2022-09-09T14:58:11.556Z,30.62
2022-09-09T15:00:42.376Z,30.93
2022-09-09T15:03:12.392Z,31.12
2022-09-09T15:05:42.406Z,32.54
2022-09-09T15:08:12.519Z,33.90
2022-09-09T15:10:42.790Z,31.99
2022-09-09T15:13:12.737Z,30.10
2022-09-09T15:15:43.612Z,36.43
2022-09-09T15:18:14.082Z,32.54
2022-09-09T15:20:48.657Z,32.28
2022-09-09T15:23:18.961Z,31.76
2022-09-09T15:25:56.087Z,31.93
2022-09-09T15:28:26.506Z,32.55
2022-09-09T15:30:57.830Z,31.98
2022-09-09T15:33:29.151Z,35.38
2022-09-09T15:35:59.194Z,34.21
2022-09-09T15:38:29.141Z,33.43
2022-09-09T15:40:59.632Z,33.22
2022-09-09T15:43:29.659Z,33.31
2022-09-09T15:46:07.548Z,33.93
2022-09-09T15:51:31.109Z,32.97
2022-09-09T15:54:02.869Z,32.78
2022-09-09T15:56:33.825Z,34.81
2022-09-09T15:59:05.057Z,32.17
2022-09-09T16:01:36.551Z,30.89
2022-09-09T16:04:07.995Z,32.88
2022-09-09T16:06:38.094Z,31.58
2022-09-09T16:09:09.220Z,30.91
2022-09-09T16:11:40.859Z,32.65
2022-09-09T16:14:12.042Z,33.77
2022-09-09T16:16:43.071Z,32.82
2022-09-09T16:19:14.476Z,30.14
2022-09-09T16:21:46.137Z,30.15
2022-09-09T16:24:17.390Z,30.09
2022-09-09T16:26:49.178Z,29.94
2022-09-09T16:29:20.327Z,30.53
2022-09-09T16:31:51.304Z,31.02
2022-09-09T16:34:22.152Z,29.36
2022-09-09T16:36:52.198Z,29.65
2022-09-09T16:39:24.164Z,29.70
2022-09-09T16:41:54.351Z,29.96
2022-09-09T16:44:24.355Z,29.09
2022-09-09T16:46:59.594Z,30.08
2022-09-09T16:49:30.535Z,29.22
2022-09-09T16:52:01.584Z,29.70
2022-09-09T16:54:31.716Z,28.51
2022-09-09T16:57:01.747Z,30.09
2022-09-09T16:59:33.100Z,29.93
2022-09-09T17:02:06.085Z,29.14
2022-09-09T17:04:36.144Z,30.22
2022-09-09T17:07:06.266Z,30.44
2022-09-09T17:09:36.360Z,32.15
2022-09-09T17:12:07.581Z,31.43
2022-09-09T17:14:38.576Z,32.43
2022-09-09T17:17:30.276Z,30.98
2022-09-09T17:19:58.619Z,31.96
2022-09-09T17:22:28.575Z,31.38
2022-09-09T17:24:58.575Z,31.32
2022-09-09T17:27:28.613Z,31.95
2022-09-09T17:29:58.525Z,29.78
2022-09-09T17:32:29.805Z,28.88
2022-09-09T17:34:59.810Z,28.94
2022-09-09T17:37:31.116Z,28.77
2022-09-09T17:40:02.097Z,29.46
2022-09-09T17:42:32.286Z,28.91
2022-09-09T17:45:02.310Z,30.74
2022-09-09T17:47:32.776Z,31.46
2022-09-09T17:50:02.835Z,31.27
2022-09-09T17:52:32.943Z,30.78
2022-09-09T17:55:02.880Z,30.16
2022-09-09T17:57:32.942Z,31.67
2022-09-09T18:00:02.985Z,30.27
2022-09-09T18:02:33.451Z,28.99
2022-09-09T18:05:03.612Z,29.31
2022-09-09T18:07:34.362Z,31.68
2022-09-09T18:10:04.589Z,30.34
2022-09-09T18:12:34.885Z,31.35
2022-09-09T18:15:05.765Z,31.32
2022-09-09T18:20:11.392Z,30.07
2022-09-09T18:22:41.405Z,29.44
2022-09-09T18:25:11.383Z,29.56
2022-09-09T18:27:41.373Z,29.40
2022-09-09T18:30:12.405Z,28.49
2022-09-09T18:32:42.384Z,26.55
2022-09-09T18:35:12.450Z,25.69
2022-09-09T18:37:42.583Z,25.83
2022-09-09T18:40:12.672Z,25.88
2022-09-09T18:42:44.252Z,27.68
2022-09-09T18:45:14.599Z,28.19
2022-09-09T18:47:44.919Z,27.36
2022-09-09T18:50:15.054Z,27.23
2022-09-09T18:52:45.055Z,28.70
2022-09-09T18:55:15.991Z,26.91
2022-09-09T18:57:46.133Z,27.11
2022-09-09T19:00:16.397Z,26.92
2022-09-09T19:02:47.193Z,27.30
2022-09-09T19:05:17.297Z,28.48
2022-09-09T19:07:47.281Z,30.43
2022-09-09T19:10:20.931Z,28.83
2022-09-09T19:12:51.385Z,28.67
2022-09-09T19:15:21.432Z,30.05
2022-09-09T19:17:51.548Z,26.10
2022-09-09T19:20:23.667Z,25.43
2022-09-09T19:22:54.495Z,25.52
2022-09-09T19:25:24.438Z,24.39
2022-09-09T19:27:54.424Z,23.98
2022-09-09T19:30:25.173Z,22.91
2022-09-09T19:32:55.342Z,24.52
2022-09-09T19:35:25.335Z,24.01
2022-09-09T19:37:55.707Z,24.23
2022-09-09T19:40:25.758Z,23.50
2022-09-09T19:42:55.770Z,22.93
2022-09-09T19:45:25.768Z,22.14
2022-09-09T19:47:56.564Z,22.04
2022-09-09T19:50:26.521Z,21.35
2022-09-09T19:52:57.932Z,19.81
2022-09-09T19:55:29.005Z,20.08
2022-09-09T19:57:59.677Z,20.14
2022-09-09T20:00:29.721Z,20.79
2022-09-09T20:03:18.242Z,22.30
2022-09-09T20:05:50.492Z,20.00
2022-09-09T20:08:20.500Z,18.15
2022-09-09T20:10:54.898Z,20.19
2022-09-09T20:13:24.920Z,19.61
2022-09-09T20:16:03.852Z,20.65
2022-09-09T20:18:35.118Z,19.98
2022-09-09T20:21:06.836Z,21.44
2022-09-09T20:23:38.384Z,20.01
2022-09-09T20:26:10.087Z,20.39
2022-09-09T20:28:42.282Z,20.71
2022-09-09T20:31:13.938Z,21.57
2022-09-09T20:33:45.651Z,26.92
2022-09-09T20:36:17.041Z,20.70
2022-09-09T20:38:48.350Z,20.36
2022-09-09T20:41:21.668Z,19.96
2022-09-09T20:43:53.133Z,19.45
2022-09-09T20:46:25.048Z,18.53
2022-09-09T20:49:00.792Z,18.76
2022-09-09T20:51:33.736Z,18.17
2022-09-09T20:54:05.036Z,18.69
2022-09-09T20:56:37.129Z,17.97
2022-09-09T20:59:10.337Z,18.51
2022-09-09T21:01:40.624Z,18.54
2022-09-09T21:04:10.794Z,17.34
2022-09-09T21:06:40.927Z,16.67
2022-09-09T21:09:11.205Z,17.17
2022-09-09T21:11:41.945Z,17.10
2022-09-09T21:14:12.624Z,16.86
2022-09-09T21:16:42.630Z,17.23
2022-09-09T21:19:12.943Z,17.39
2022-09-09T21:21:42.868Z,16.98
2022-09-09T21:24:13.078Z,17.38
2022-09-09T21:26:43.134Z,17.42
2022-09-09T21:29:14.058Z,18.24
2022-09-09T21:31:44.503Z,17.50
2022-09-09T21:34:15.480Z,17.76
2022-09-09T21:36:45.429Z,17.18
2022-09-09T21:39:15.423Z,18.28
2022-09-09T21:41:45.390Z,19.22
2022-09-09T21:44:15.506Z,17.79
2022-09-09T21:46:47.003Z,16.38
2022-09-09T21:49:17.142Z,18.18
2022-09-09T21:51:47.607Z,18.46
2022-09-09T21:54:18.808Z,17.83
2022-09-09T21:56:51.869Z,16.72
2022-09-09T21:59:22.153Z,17.59
2022-09-09T22:01:56.910Z,17.78
2022-09-09T22:04:28.811Z,17.51
2022-09-09T22:06:58.830Z,18.24
2022-09-09T22:09:29.114Z,17.85
2022-09-09T22:11:59.784Z,16.90
2022-09-09T22:14:30.226Z,16.87
2022-09-09T22:17:01.157Z,16.42
2022-09-09T22:19:31.588Z,16.60
2022-09-09T22:22:01.707Z,16.32
2022-09-09T22:24:33.176Z,15.94
2022-09-09T22:27:05.007Z,16.32
2022-09-09T22:29:35.300Z,15.08
2022-09-09T22:32:08.234Z,15.05
2022-09-09T22:34:39.100Z,14.85
2022-09-09T22:37:10.105Z,14.42
2022-09-09T22:39:40.295Z,13.94
2022-09-09T22:42:10.451Z,14.32
2022-09-09T22:44:40.443Z,15.21
2022-09-09T22:47:10.443Z,14.29
2022-09-09T22:49:40.450Z,13.96
2022-09-09T22:52:11.258Z,14.46
2022-09-09T22:54:43.690Z,14.55
2022-09-09T22:57:14.025Z,14.24
2022-09-09T22:59:44.751Z,14.52
2022-09-09T23:02:15.243Z,13.28
2022-09-09T23:04:46.175Z,13.64
2022-09-09T23:07:17.824Z,13.37
2022-09-09T23:09:48.793Z,12.96
2022-09-09T23:12:21.519Z,13.15
2022-09-09T23:14:52.020Z,12.39
2022-09-09T23:17:21.997Z,12.21
2022-09-09T23:19:57.053Z,12.67
2022-09-09T23:22:27.982Z,12.97
2022-09-09T23:24:57.998Z,13.50
2022-09-09T23:27:27.964Z,13.60
2022-09-09T23:29:57.918Z,13.51
2022-09-09T23:32:27.978Z,13.09
2022-09-09T23:34:58.192Z,12.54
2022-09-09T23:37:29.425Z,11.88
2022-09-09T23:40:00.016Z,11.63
2022-09-09T23:42:33.529Z,11.92
2022-09-09T23:45:03.520Z,11.33
2022-09-09T23:47:33.460Z,11.31
2022-09-09T23:50:03.694Z,12.63
2022-09-09T23:52:34.583Z,13.15
2022-09-09T23:55:06.436Z,13.00
2022-09-09T23:57:36.410Z,12.46
